Time;durP1;ratioP1;P1;durP2;ratioP2;P2;SDS_P1;SDS_P2;PMS_P1;PMS_P2;Temp;Humidity;BMP_temperature;BMP_pressure;BME280_temperature;BME280_humidity;BME280_pressure;Samples;Min_cycle;Max_cycle;Signal;HPM_P1;HPM_P2
2023/07/27 00:01:52;;;;;;;0.75;0.52;;;16.20;99.90;;;;;;5044864;28;20056;-82
2023/07/27 00:04:21;;;;;;;1.10;0.57;;;16.20;99.90;;;;;;5059649;28;20144;-82
2023/07/27 00:06:48;;;;;;;0.70;0.55;;;16.20;99.90;;;;;;5032986;28;20621;-82
2023/07/27 00:09:15;;;;;;;0.50;0.50;;;16.30;99.90;;;;;;5033389;28;20053;-82
2023/07/27 00:11:42;;;;;;;0.55;0.43;;;16.20;99.90;;;;;;5050349;28;20057;-81
2023/07/27 00:14:09;;;;;;;0.85;0.60;;;16.30;99.90;;;;;;5046637;28;20814;-81
2023/07/27 00:16:36;;;;;;;0.55;0.35;;;16.30;99.90;;;;;;5029721;28;20060;-80
2023/07/27 00:19:03;;;;;;;0.40;0.28;;;16.30;99.90;;;;;;5030321;28;20052;-81
2023/07/27 00:21:30;;;;;;;0.80;0.50;;;16.30;99.90;;;;;;5035394;28;20459;-81
2023/07/27 00:23:57;;;;;;;0.40;0.40;;;16.30;99.90;;;;;;5064085;28;20094;-81
2023/07/27 00:26:24;;;;;;;0.68;0.55;;;16.30;99.90;;;;;;5063950;28;20107;-80
2023/07/27 00:28:51;;;;;;;1.20;0.63;;;16.30;99.90;;;;;;5052578;28;20454;-80
2023/07/27 00:31:18;;;;;;;0.68;0.50;;;16.20;99.90;;;;;;5047239;28;20079;-80
2023/07/27 00:33:45;;;;;;;0.57;0.40;;;16.20;99.90;;;;;;5047227;28;20116;-81
2023/07/27 00:36:12;;;;;;;0.90;0.60;;;16.10;99.90;;;;;;5065211;28;20059;-80
2023/07/27 00:38:39;;;;;;;0.57;0.50;;;16.10;99.90;;;;;;5046036;28;20535;-81
2023/07/27 00:41:07;;;;;;;0.90;0.70;;;16.10;99.90;;;;;;5046215;28;20045;-80
2023/07/27 00:43:34;;;;;;;1.05;0.60;;;16.10;99.90;;;;;;5062210;28;20052;-81
2023/07/27 00:46:01;;;;;;;1.65;0.90;;;16.10;99.90;;;;;;5065225;28;20057;-81
2023/07/27 00:48:28;;;;;;;0.93;0.65;;;16.10;99.90;;;;;;5063434;28;20136;-81
2023/07/27 00:50:55;;;;;;;0.73;0.60;;;16.10;99.90;;;;;;5053474;28;20144;-80
2023/07/27 00:53:22;;;;;;;1.02;0.80;;;16.10;99.90;;;;;;5040410;28;20052;-81
2023/07/27 00:55:48;;;;;;;0.65;0.55;;;16.00;99.90;;;;;;5049530;28;20052;-81
2023/07/27 00:58:15;;;;;;;1.65;0.93;;;16.10;99.90;;;;;;5043295;28;20049;-80
2023/07/27 01:00:43;;;;;;;0.70;0.70;;;16.10;99.90;;;;;;5043077;28;20099;-81
2023/07/27 01:03:10;;;;;;;0.73;0.57;;;16.10;99.90;;;;;;5035158;28;20148;-81
2023/07/27 01:05:37;;;;;;;0.50;0.50;;;16.10;99.90;;;;;;5040308;28;20096;-81
2023/07/27 01:08:04;;;;;;;1.17;0.60;;;16.10;99.90;;;;;;5028054;28;20053;-81
2023/07/27 01:10:56;;;;;;;0.52;0.50;;;16.00;99.90;;;;;;5045187;28;20145;-81
2023/07/27 01:13:31;;;;;;;0.50;0.50;;;16.10;99.90;;;;;;5058842;28;20118;-82
2023/07/27 01:16:00;;;;;;;0.52;0.52;;;16.10;99.90;;;;;;5048705;28;20086;-81
2023/07/27 01:18:58;;;;;;;0.28;0.28;;;16.10;99.90;;;;;;5047896;28;20487;-81
2023/07/27 01:21:29;;;;;;;0.85;0.50;;;16.10;99.90;;;;;;5040589;28;20071;-80
2023/07/27 01:24:28;;;;;;;0.50;0.30;;;16.10;99.90;;;;;;5028739;28;20095;-80
2023/07/27 01:27:08;;;;;;;1.02;0.50;;;16.10;99.90;;;;;;5040939;28;20063;-82
2023/07/27 01:29:57;;;;;;;0.73;0.45;;;16.10;99.90;;;;;;5062773;28;20045;-81
2023/07/27 01:32:24;;;;;;;0.15;0.15;;;16.10;99.90;;;;;;5055509;28;20507;-80
2023/07/27 01:34:53;;;;;;;0.43;0.43;;;16.10;99.90;;;;;;5038336;28;20126;-82
2023/07/27 01:37:20;;;;;;;0.40;0.30;;;16.10;1.00;;;;;;5041357;28;20049;-81
2023/07/27 01:39:48;;;;;;;0.28;0.20;;;16.10;1.00;;;;;;5031293;28;20049;-81
2023/07/27 01:42:15;;;;;;;0.20;0.17;;;16.10;1.00;;;;;;5026828;28;20055;-82
2023/07/27 01:44:42;;;;;;;0.20;0.20;;;16.10;1.00;;;;;;5032512;28;20044;-82
2023/07/27 01:47:09;;;;;;;0.55;0.40;;;16.20;1.00;;;;;;5044702;28;20143;-81
2023/07/27 01:49:38;;;;;;;0.70;0.50;;;16.10;1.00;;;;;;5054059;28;20045;-81
2023/07/27 01:52:05;;;;;;;0.25;0.15;;;16.20;1.00;;;;;;5049362;28;20055;-81
2023/07/27 01:54:32;;;;;;;0.25;0.20;;;16.10;1.00;;;;;;5049412;28;20102;-81
2023/07/27 01:56:59;;;;;;;0.30;0.30;;;16.20;1.00;;;;;;5048883;28;20055;-81
2023/07/27 01:59:26;;;;;;;0.40;0.30;;;16.20;1.00;;;;;;5032662;28;20056;-81
2023/07/27 02:01:53;;;;;;;0.35;0.35;;;16.20;1.00;;;;;;5046553;28;20048;-80
2023/07/27 02:04:19;;;;;;;0.85;0.40;;;16.20;1.00;;;;;;5027742;28;20518;-81
2023/07/27 02:06:49;;;;;;;0.20;0.20;;;16.20;1.00;;;;;;5028948;28;20438;-81
2023/07/27 02:09:17;;;;;;;0.20;0.20;;;16.20;1.00;;;;;;5045953;28;20049;-81
2023/07/27 02:11:46;;;;;;;0.35;0.20;;;16.20;1.00;;;;;;5028745;28;20052;-80
2023/07/27 02:14:16;;;;;;;0.45;0.28;;;16.20;1.00;;;;;;5029089;28;20080;-81
2023/07/27 02:17:00;;;;;;;0.30;0.30;;;16.30;1.00;;;;;;5045109;28;20067;-80
2023/07/27 02:19:30;;;;;;;0.45;0.40;;;16.30;1.00;;;;;;5061774;28;20049;-81
2023/07/27 02:21:57;;;;;;;0.60;0.32;;;16.30;1.00;;;;;;5045336;28;20561;-81
2023/07/27 02:24:24;;;;;;;0.28;0.28;;;16.30;1.00;;;;;;5028962;28;20210;-80
2023/07/27 02:26:51;;;;;;;0.30;0.20;;;16.30;1.00;;;;;;5042422;28;20048;-81
2023/07/27 02:29:18;;;;;;;0.20;0.17;;;16.30;1.00;;;;;;5048606;28;20048;-81
2023/07/27 02:31:45;;;;;;;0.50;0.40;;;16.30;1.00;;;;;;5047667;28;20114;-81
2023/07/27 02:34:12;;;;;;;0.30;0.30;;;16.30;1.00;;;;;;5048733;28;20082;-82
2023/07/27 02:36:39;;;;;;;0.65;0.30;;;16.40;1.00;;;;;;5029611;28;20456;-81
2023/07/27 02:39:06;;;;;;;0.43;0.20;;;16.40;1.00;;;;;;5045016;28;20107;-82
2023/07/27 02:41:33;;;;;;;0.50;0.40;;;16.40;1.00;;;;;;5031893;28;20052;-81
2023/07/27 02:44:00;;;;;;;0.28;0.20;;;16.40;1.00;;;;;;5052721;28;20052;-81
2023/07/27 02:46:27;;;;;;;0.38;0.38;;;16.40;1.00;;;;;;5028038;28;20126;-82
2023/07/27 02:48:55;;;;;;;0.55;0.30;;;16.40;1.00;;;;;;5027599;28;20053;-81
2023/07/27 02:51:23;;;;;;;0.32;0.30;;;16.50;1.00;;;;;;5028689;28;20041;-81
2023/07/27 02:53:49;;;;;;;0.32;0.20;;;16.40;1.00;;;;;;5059978;28;20052;-82
2023/07/27 02:56:16;;;;;;;0.30;0.30;;;16.40;1.00;;;;;;5066401;28;20465;-82
2023/07/27 02:58:43;;;;;;;0.10;0.10;;;16.40;1.00;;;;;;5066092;28;20048;-81
2023/07/27 03:01:10;;;;;;;0.25;0.22;;;16.30;1.00;;;;;;5045002;28;20136;-81
2023/07/27 03:03:37;;;;;;;0.10;0.10;;;16.30;1.00;;;;;;5045579;28;20057;-82
2023/07/27 03:06:03;;;;;;;0.28;0.28;;;16.20;1.00;;;;;;5012550;28;20110;-81
2023/07/27 03:08:30;;;;;;;0.25;0.20;;;16.20;1.00;;;;;;5028542;28;20057;-80
2023/07/27 03:11:02;;;;;;;0.30;0.30;;;16.20;22.90;;;;;;5012342;28;20511;-82
2023/07/27 03:13:29;;;;;;;0.20;0.20;;;16.20;43.50;;;;;;5029101;28;20061;-82
2023/07/27 03:15:56;;;;;;;0.40;0.30;;;16.30;56.80;;;;;;5028468;28;20049;-82
2023/07/27 03:18:23;;;;;;;0.40;0.30;;;16.30;58.70;;;;;;5028364;28;20048;-82
2023/07/27 03:20:50;;;;;;;0.30;0.20;;;16.30;80.00;;;;;;5045219;28;20059;-83
2023/07/27 03:23:17;;;;;;;0.25;0.25;;;16.30;83.40;;;;;;5028893;28;20613;-84
2023/07/27 03:25:44;;;;;;;0.10;0.10;;;16.30;99.90;;;;;;5045187;28;20057;-82
2023/07/27 03:28:11;;;;;;;0.43;0.30;;;16.30;99.90;;;;;;5045132;28;20076;-83
2023/07/27 03:30:38;;;;;;;0.25;0.10;;;16.40;99.90;;;;;;5028920;28;20065;-81
2023/07/27 03:33:05;;;;;;;0.15;0.15;;;16.40;99.90;;;;;;5028161;28;20041;-82
2023/07/27 03:35:34;;;;;;;0.28;0.28;;;16.40;99.90;;;;;;5012684;28;20210;-82
2023/07/27 03:38:02;;;;;;;0.20;0.20;;;16.40;99.90;;;;;;5028953;28;20049;-82
2023/07/27 03:40:29;;;;;;;0.22;0.20;;;16.40;99.90;;;;;;5012680;28;20045;-82
2023/07/27 03:42:55;;;;;;;1.00;0.28;;;16.50;99.90;;;;;;5013580;28;20053;-83
2023/07/27 03:45:22;;;;;;;0.20;0.20;;;16.50;99.90;;;;;;5028976;28;20420;-83
2023/07/27 03:47:49;;;;;;;0.60;0.40;;;16.50;99.90;;;;;;5012054;28;20166;-83
2023/07/27 03:50:16;;;;;;;0.10;0.10;;;16.50;99.90;;;;;;5028325;28;20518;-83
2023/07/27 03:52:43;;;;;;;0.15;0.15;;;16.50;99.90;;;;;;5012973;28;20183;-83
2023/07/27 03:55:10;;;;;;;0.28;0.28;;;16.50;99.90;;;;;;5029274;28;20049;-83
2023/07/27 03:57:37;;;;;;;0.20;0.20;;;16.60;99.90;;;;;;5028784;28;20073;-83
2023/07/27 04:00:05;;;;;;;0.20;0.20;;;16.60;99.90;;;;;;5028825;28;20471;-83
2023/07/27 04:02:32;;;;;;;0.40;0.35;;;16.60;99.90;;;;;;5027709;28;20122;-83
2023/07/27 04:05:00;;;;;;;0.20;0.20;;;16.60;99.90;;;;;;5029010;28;20136;-83
2023/07/27 04:07:26;;;;;;;0.10;0.10;;;16.60;99.90;;;;;;5012670;28;20041;-83
2023/07/27 04:09:53;;;;;;;0.30;0.20;;;16.70;99.90;;;;;;5044762;28;20119;-84
2023/07/27 04:12:20;;;;;;;0.50;0.30;;;16.70;99.90;;;;;;5012191;28;20053;-83
2023/07/27 04:14:47;;;;;;;0.32;0.28;;;16.70;99.90;;;;;;5029051;28;20091;-84
2023/07/27 04:17:14;;;;;;;0.22;0.20;;;16.70;99.90;;;;;;5044015;28;20468;-83
2023/07/27 04:19:41;;;;;;;0.43;0.30;;;16.70;99.90;;;;;;5028633;28;20114;-83
2023/07/27 04:22:07;;;;;;;0.30;0.20;;;16.70;99.90;;;;;;5028763;28;20049;-84
2023/07/27 04:24:35;;;;;;;0.20;0.20;;;16.70;99.90;;;;;;5065276;28;20053;-83
2023/07/27 04:27:02;;;;;;;0.30;0.30;;;16.80;99.90;;;;;;5051734;28;20056;-83
2023/07/27 04:29:28;;;;;;;0.30;0.20;;;16.80;99.90;;;;;;5053211;28;20448;-84
2023/07/27 04:31:55;;;;;;;0.10;0.10;;;16.80;99.80;;;;;;5035877;28;20484;-84
2023/07/27 04:34:22;;;;;;;0.10;0.10;;;16.80;99.60;;;;;;5050342;28;20056;-84
2023/07/27 04:36:49;;;;;;;0.17;0.17;;;16.80;98.70;;;;;;5061516;28;20598;-84
2023/07/27 04:39:16;;;;;;;0.30;0.30;;;16.80;97.00;;;;;;5052650;28;20049;-83
2023/07/27 04:41:43;;;;;;;0.20;0.20;;;16.80;98.00;;;;;;5035363;28;20052;-83
2023/07/27 04:44:10;;;;;;;0.25;0.20;;;16.80;99.90;;;;;;5031903;28;20122;-84
2023/07/27 04:46:37;;;;;;;0.17;0.17;;;16.80;99.90;;;;;;5041646;28;20056;-83
2023/07/27 04:49:06;;;;;;;0.17;0.10;;;16.90;99.90;;;;;;5018655;28;20268;-83
2023/07/27 04:51:34;;;;;;;0.20;0.20;;;16.90;99.90;;;;;;5037494;28;20049;-83
2023/07/27 04:54:01;;;;;;;0.13;0.13;;;16.90;99.90;;;;;;5029456;28;20057;-83
2023/07/27 04:56:29;;;;;;;0.10;0.10;;;16.90;99.90;;;;;;5035465;28;20504;-83
2023/07/27 04:58:55;;;;;;;0.10;0.10;;;16.90;99.90;;;;;;5045751;28;20049;-83
2023/07/27 05:01:22;;;;;;;0.22;0.15;;;16.90;98.50;;;;;;5028592;28;20078;-84
2023/07/27 05:03:51;;;;;;;0.15;0.10;;;17.00;98.90;;;;;;5021047;28;20045;-83
2023/07/27 05:06:18;;;;;;;0.20;0.20;;;17.00;97.70;;;;;;5025659;28;20056;-83
2023/07/27 05:08:45;;;;;;;0.10;0.00;;;17.00;94.20;;;;;;5046221;28;20106;-83
2023/07/27 05:11:11;;;;;;;0.10;0.10;;;17.10;92.30;;;;;;5035072;28;20062;-84
2023/07/27 05:13:38;;;;;;;0.00;0.00;;;17.10;92.90;;;;;;5065118;28;20052;-83
2023/07/27 05:16:05;;;;;;;0.10;0.10;;;17.20;86.30;;;;;;5072550;28;20040;-83
2023/07/27 05:18:32;;;;;;;0.82;0.20;;;17.20;90.30;;;;;;5037493;28;20183;-81
2023/07/27 05:21:00;;;;;;;0.10;0.10;;;17.30;71.00;;;;;;5053511;28;20128;-82
2023/07/27 05:23:27;;;;;;;0.35;0.13;;;17.20;62.00;;;;;;5069990;28;20052;-81
2023/07/27 05:25:54;;;;;;;0.10;0.10;;;17.30;58.60;;;;;;5041496;28;20051;-81
2023/07/27 05:28:21;;;;;;;0.20;0.20;;;17.30;49.80;;;;;;5037702;28;20900;-82
2023/07/27 05:30:48;;;;;;;0.25;0.20;;;17.30;50.60;;;;;;5042110;28;20049;-80
2023/07/27 05:33:15;;;;;;;0.20;0.10;;;17.30;45.90;;;;;;5033251;28;20049;-82
2023/07/27 05:35:48;;;;;;;0.25;0.20;;;17.30;46.90;;;;;;5033601;28;20099;-82
2023/07/27 05:38:15;;;;;;;;;;;17.30;20.30;;;;;;5031679;28;20227;-83
2023/07/27 05:40:42;;;;;;;0.08;0.08;;;17.40;17.00;;;;;;5062639;28;20344;-80
2023/07/27 05:43:09;;;;;;;0.10;0.10;;;17.40;12.00;;;;;;5027402;28;20056;-81
2023/07/27 05:45:39;;;;;;;0.10;0.10;;;17.40;17.50;;;;;;5026681;28;20158;-81
2023/07/27 05:48:06;;;;;;;0.20;0.20;;;17.50;7.70;;;;;;5044267;28;20060;-80
2023/07/27 05:50:34;;;;;;;0.10;0.10;;;17.50;1.00;;;;;;5029538;28;20056;-81
2023/07/27 05:53:01;;;;;;;0.22;0.20;;;17.50;1.00;;;;;;5023877;28;20044;-81
2023/07/27 05:55:28;;;;;;;0.20;0.20;;;17.50;1.00;;;;;;5023835;28;20171;-80
2023/07/27 05:57:54;;;;;;;0.20;0.20;;;17.50;1.00;;;;;;5033978;28;20056;-80
2023/07/27 06:00:27;;;;;;;0.20;0.20;;;17.50;1.00;;;;;;5050783;28;20057;-81
2023/07/27 06:02:54;;;;;;;0.30;0.25;;;17.50;1.00;;;;;;5023681;28;20086;-80
2023/07/27 06:05:21;;;;;;;0.20;0.20;;;17.50;1.00;;;;;;5036056;28;20053;-80
2023/07/27 06:07:48;;;;;;;0.30;0.13;;;17.60;1.00;;;;;;5054645;28;20059;-80
2023/07/27 06:10:15;;;;;;;0.40;0.25;;;17.60;1.00;;;;;;5062701;28;20098;-81
2023/07/27 06:12:42;;;;;;;0.43;0.32;;;17.60;1.00;;;;;;5034774;28;20113;-81
2023/07/27 06:15:09;;;;;;;0.50;0.25;;;17.60;1.00;;;;;;5049730;28;20076;-81
2023/07/27 06:17:36;;;;;;;0.28;0.22;;;17.60;1.00;;;;;;5060328;28;20488;-81
2023/07/27 06:20:05;;;;;;;0.52;0.30;;;17.60;1.00;;;;;;5021620;28;20563;-81
2023/07/27 06:22:32;;;;;;;0.60;0.30;;;17.60;1.00;;;;;;5048676;28;20490;-81
2023/07/27 06:24:59;;;;;;;0.30;0.30;;;17.70;1.00;;;;;;5028767;28;20052;-81
2023/07/27 06:27:25;;;;;;;0.22;0.22;;;17.60;1.00;;;;;;5038773;28;20112;-81
2023/07/27 06:29:52;;;;;;;1.70;0.32;;;17.70;1.00;;;;;;5014608;28;20052;-81
2023/07/27 06:32:19;;;;;;;0.10;0.10;;;17.70;1.00;;;;;;5015602;28;20052;-81
2023/07/27 06:34:46;;;;;;;0.50;0.40;;;17.80;1.00;;;;;;5041552;28;20159;-81
2023/07/27 06:37:13;;;;;;;0.30;0.30;;;17.80;1.00;;;;;;5030219;28;20134;-81
2023/07/27 06:39:40;;;;;;;0.17;0.17;;;17.80;1.00;;;;;;5037139;28;20048;-81
2023/07/27 06:42:07;;;;;;;0.30;0.20;;;17.90;1.00;;;;;;5044581;28;20080;-80
2023/07/27 06:44:34;;;;;;;0.60;0.35;;;17.90;1.00;;;;;;5045545;28;20052;-82
2023/07/27 06:47:01;;;;;;;0.30;0.30;;;18.00;1.00;;;;;;5034538;28;20095;-81
2023/07/27 06:49:32;;;;;;;0.50;0.50;;;18.00;1.00;;;;;;5042055;28;20464;-81
2023/07/27 06:51:59;;;;;;;0.20;0.20;;;18.10;1.00;;;;;;5026856;28;20072;-81
2023/07/27 06:54:26;;;;;;;0.40;0.22;;;18.20;1.00;;;;;;5025562;28;20163;-81
2023/07/27 06:56:53;;;;;;;0.20;0.20;;;18.20;1.00;;;;;;5025810;28;20139;-79
2023/07/27 06:59:20;;;;;;;0.15;0.10;;;18.20;1.00;;;;;;5043857;28;20056;-81
2023/07/27 07:01:47;;;;;;;0.20;0.20;;;18.30;1.00;;;;;;5046326;28;20453;-81
2023/07/27 07:04:14;;;;;;;0.40;0.30;;;18.30;1.00;;;;;;5038181;28;20128;-81
2023/07/27 07:06:41;;;;;;;0.43;0.20;;;18.30;99.90;;;;;;5038485;28;20072;-81
2023/07/27 07:09:10;;;;;;;0.20;0.20;;;18.30;99.90;;;;;;5042198;28;20065;-80
2023/07/27 07:11:37;;;;;;;0.22;0.20;;;18.40;99.90;;;;;;5057238;28;20117;-80
2023/07/27 07:14:04;;;;;;;0.25;0.25;;;18.40;99.90;;;;;;5038383;28;20045;-80
2023/07/27 07:16:31;;;;;;;0.20;0.20;;;18.40;99.90;;;;;;5007453;28;20053;-79
2023/07/27 07:18:58;;;;;;;0.28;0.20;;;18.40;99.90;;;;;;5027242;28;20055;-80
2023/07/27 07:21:25;;;;;;;0.10;0.10;;;18.40;99.90;;;;;;5033779;28;20056;-79
2023/07/27 07:23:52;;;;;;;0.30;0.30;;;18.40;99.90;;;;;;5018582;28;20064;-79
2023/07/27 07:26:19;;;;;;;0.30;0.10;;;18.50;99.90;;;;;;5023931;28;20115;-79
2023/07/27 07:28:46;;;;;;;0.20;0.20;;;18.50;99.90;;;;;;5020314;28;20138;-80
2023/07/27 07:31:13;;;;;;;0.30;0.30;;;18.50;99.90;;;;;;5037830;28;20495;-80
2023/07/27 07:33:40;;;;;;;0.20;0.20;;;18.60;99.90;;;;;;5045619;28;20052;-80
2023/07/27 07:36:07;;;;;;;0.20;0.20;;;18.60;99.90;;;;;;5037918;28;20088;-80
2023/07/27 07:38:34;;;;;;;0.20;0.20;;;18.70;99.90;;;;;;5039094;28;20136;-80
2023/07/27 07:41:01;;;;;;;0.28;0.20;;;18.80;99.90;;;;;;5019126;28;20049;-80
2023/07/27 07:43:28;;;;;;;0.10;0.10;;;18.80;99.90;;;;;;5016543;28;20049;-79
2023/07/27 07:45:54;;;;;;;0.65;0.40;;;18.90;99.90;;;;;;5030422;28;20056;-80
2023/07/27 07:48:22;;;;;;;0.30;0.13;;;19.00;99.90;;;;;;5041697;28;20056;-80
2023/07/27 07:50:51;;;;;;;0.22;0.13;;;19.00;99.90;;;;;;5014297;28;20110;-80
2023/07/27 07:53:18;;;;;;;0.75;0.32;;;19.10;99.90;;;;;;5035836;28;20085;-80
2023/07/27 07:56:00;;;;;;;0.40;0.30;;;19.20;99.90;;;;;;5034811;28;20099;-80
2023/07/27 07:58:27;;;;;;;0.13;0.13;;;19.40;44.80;;;;;;5034322;28;20127;-80
2023/07/27 08:00:54;;;;;;;0.20;0.20;;;19.50;1.00;;;;;;5023416;28;20041;-79
2023/07/27 08:03:21;;;;;;;0.20;0.20;;;19.50;1.00;;;;;;5031215;28;20150;-79
2023/07/27 08:05:48;;;;;;;0.17;0.10;;;19.50;1.00;;;;;;5021395;28;20052;-80
2023/07/27 08:08:15;;;;;;;0.30;0.30;;;19.60;1.00;;;;;;5035246;28;20059;-80
2023/07/27 08:10:42;;;;;;;0.55;0.30;;;19.70;1.00;;;;;;5029006;28;20542;-80
2023/07/27 08:13:08;;;;;;;0.55;0.40;;;19.80;99.90;;;;;;5025318;28;20060;-80
2023/07/27 08:15:35;;;;;;;0.20;0.20;;;19.90;99.90;;;;;;5037402;28;20053;-79
2023/07/27 08:18:02;;;;;;;0.40;0.20;;;20.00;99.90;;;;;;5034488;28;20044;-79
2023/07/27 08:20:29;;;;;;;0.57;0.40;;;20.10;99.90;;;;;;5039460;28;20047;-79
2023/07/27 08:22:56;;;;;;;0.70;0.25;;;20.30;99.90;;;;;;5031302;28;20610;-79
2023/07/27 08:25:23;;;;;;;0.20;0.20;;;20.30;99.90;;;;;;5046385;28;20049;-80
2023/07/27 08:27:50;;;;;;;1.42;0.40;;;20.50;99.90;;;;;;5045727;28;20052;-80
2023/07/27 08:30:21;;;;;;;0.17;0.15;;;20.50;97.60;;;;;;5045549;28;20466;-80
2023/07/27 08:32:48;;;;;;;0.20;0.20;;;20.60;99.90;;;;;;5048667;28;20138;-80
2023/07/27 08:35:15;;;;;;;0.28;0.28;;;20.80;1.00;;;;;;5031867;28;20594;-79
2023/07/27 08:37:42;;;;;;;0.20;0.20;;;20.90;1.00;;;;;;5008805;28;20617;-79
2023/07/27 08:40:09;;;;;;;0.38;0.30;;;20.90;99.90;;;;;;5029073;28;20049;-80
2023/07/27 08:42:36;;;;;;;0.28;0.20;;;21.10;99.90;;;;;;5038852;28;20049;-80
2023/07/27 08:45:05;;;;;;;0.28;0.20;;;21.10;99.90;;;;;;5019867;28;20047;-80
2023/07/27 08:47:33;;;;;;;0.50;0.35;;;21.00;99.90;;;;;;5024634;28;20190;-80
2023/07/27 08:50:00;;;;;;;0.20;0.20;;;21.00;99.90;;;;;;5026971;28;20053;-80
2023/07/27 08:52:27;;;;;;;0.20;0.20;;;21.00;99.40;;;;;;5028089;28;20193;-80
2023/07/27 08:54:53;;;;;;;0.30;0.30;;;21.10;99.90;;;;;;5046401;28;20076;-80
2023/07/27 08:57:20;;;;;;;0.82;0.50;;;21.20;99.90;;;;;;5048024;28;20052;-80
2023/07/27 08:59:47;;;;;;;0.40;0.30;;;21.10;99.90;;;;;;5046068;28;20037;-79
2023/07/27 09:02:14;;;;;;;1.33;0.50;;;21.10;99.90;;;;;;5032641;28;20045;-79
2023/07/27 09:04:41;;;;;;;0.55;0.20;;;21.10;99.90;;;;;;5058470;28;20385;-79
2023/07/27 09:07:08;;;;;;;0.30;0.25;;;21.00;99.90;;;;;;5024845;28;20668;-78
2023/07/27 09:09:35;;;;;;;0.73;0.47;;;21.00;99.90;;;;;;5047627;28;20488;-77
2023/07/27 09:12:06;;;;;;;0.20;0.20;;;21.10;99.90;;;;;;5031746;28;20048;-78
2023/07/27 09:14:37;;;;;;;1.38;0.52;;;21.20;99.90;;;;;;5034379;28;20052;-78
2023/07/27 09:17:04;;;;;;;0.30;0.30;;;21.40;1.00;;;;;;5046848;28;20048;-78
2023/07/27 09:19:36;;;;;;;0.90;0.45;;;21.30;1.00;;;;;;5027066;28;20164;-79
2023/07/27 09:22:03;;;;;;;0.60;0.35;;;21.30;1.00;;;;;;5019374;28;20053;-78
2023/07/27 09:24:31;;;;;;;0.20;0.20;;;21.30;1.00;;;;;;5049349;28;20056;-77
2023/07/27 09:26:58;;;;;;;0.73;0.40;;;21.40;1.00;;;;;;5022249;28;20055;-80
2023/07/27 09:29:25;;;;;;;0.30;0.20;;;21.60;99.90;;;;;;5023354;28;20728;-80
2023/07/27 09:31:58;;;;;;;0.60;0.50;;;21.60;99.90;;;;;;5040342;28;20048;-78
2023/07/27 09:34:30;;;;;;;0.63;0.40;;;21.60;99.90;;;;;;5048038;28;20475;-79
2023/07/27 09:37:02;;;;;;;;;;;21.50;99.90;;;;;;5023495;28;20068;-79
2023/07/27 09:39:32;;;;;;;0.30;0.30;;;21.50;99.90;;;;;;5043353;28;20022;-79
2023/07/27 09:41:59;;;;;;;0.85;0.52;;;21.50;1.00;;;;;;5039279;28;20064;-79
2023/07/27 09:44:25;;;;;;;0.40;0.40;;;21.50;99.90;;;;;;5041554;28;20056;-78
2023/07/27 09:46:52;;;;;;;0.40;0.30;;;21.40;99.90;;;;;;5039725;28;20044;-78
2023/07/27 09:49:20;;;;;;;0.80;0.35;;;21.40;99.90;;;;;;5043044;28;20087;-78
2023/07/27 09:51:47;;;;;;;0.43;0.40;;;21.50;99.90;;;;;;5020880;28;20664;-75
2023/07/27 09:54:14;;;;;;;0.47;0.35;;;21.40;43.90;;;;;;5037449;28;20059;-74
2023/07/27 09:56:40;;;;;;;0.38;0.38;;;21.50;1.00;;;;;;5029996;28;20105;-74
2023/07/27 09:59:07;;;;;;;0.63;0.52;;;21.50;99.90;;;;;;5039213;28;20061;-73
2023/07/27 10:01:34;;;;;;;1.05;0.63;;;21.60;1.00;;;;;;5024115;28;20162;-73
2023/07/27 10:04:01;;;;;;;0.50;0.47;;;21.60;99.90;;;;;;5022335;28;20056;-80
2023/07/27 10:06:28;;;;;;;0.75;0.50;;;21.40;99.90;;;;;;5048991;28;20123;-79
2023/07/27 10:08:55;;;;;;;0.80;0.40;;;21.40;99.90;;;;;;5013852;28;20596;-78
2023/07/27 10:11:30;;;;;;;1.20;0.60;;;21.30;99.90;;;;;;5013243;28;20052;-79
2023/07/27 10:13:57;;;;;;;2.10;0.57;;;21.30;99.90;;;;;;5037446;28;20044;-79
2023/07/27 10:16:26;;;;;;;1.17;0.82;;;21.30;19.50;;;;;;5023269;28;20057;-78
2023/07/27 10:18:55;;;;;;;0.73;0.63;;;21.30;1.00;;;;;;5034774;28;20051;-81
2023/07/27 10:21:25;;;;;;;1.10;0.82;;;21.30;1.00;;;;;;5027414;28;20052;-79
2023/07/27 10:23:53;;;;;;;1.10;0.80;;;21.40;99.90;;;;;;5054163;28;20359;-80
2023/07/27 10:26:21;;;;;;;0.60;0.50;;;21.40;99.90;;;;;;5051376;28;20048;-79
2023/07/27 10:28:48;;;;;;;0.80;0.60;;;21.60;99.90;;;;;;5031873;28;20512;-80
2023/07/27 10:31:16;;;;;;;1.25;0.80;;;21.60;99.90;;;;;;5031563;28;20056;-80
2023/07/27 10:34:02;;;;;;;1.30;1.00;;;21.40;99.90;;;;;;5033831;28;20606;-79
2023/07/27 10:37:00;;;;;;;1.83;1.00;;;21.40;99.90;;;;;;5029150;28;20053;-80
2023/07/27 10:39:32;;;;;;;1.02;0.90;;;21.50;14.60;;;;;;5050486;28;20076;-81
2023/07/27 10:42:06;;;;;;;;;;;21.70;1.00;;;;;;5045417;28;20065;-84
2023/07/27 10:44:42;;;;;;;;;;;22.10;61.80;;;;;;5047683;28;19971;-87
2023/07/27 10:47:10;;;;;;;0.95;0.77;;;22.20;99.90;;;;;;5052112;28;19928;-85
2023/07/27 10:49:45;;;;;;;1.00;0.90;;;22.30;99.90;;;;;;5043106;28;20064;-86
2023/07/27 10:52:22;;;;;;;1.17;0.75;;;22.40;99.90;;;;;;5045384;28;20103;-84
2023/07/27 10:54:51;;;;;;;1.10;1.00;;;22.40;99.90;;;;;;5024836;28;20129;-83
2023/07/27 10:57:18;;;;;;;1.08;0.98;;;22.40;99.90;;;;;;5031722;28;20044;-83
2023/07/27 10:59:47;;;;;;;0.85;0.75;;;22.50;99.90;;;;;;5043605;28;20063;-84
2023/07/27 11:02:17;;;;;;;1.25;0.80;;;22.70;84.10;;;;;;5046294;28;20057;-85
2023/07/27 11:04:45;;;;;;;0.70;0.70;;;22.90;1.00;;;;;;5049632;28;20057;-84
2023/07/27 11:07:12;;;;;;;0.95;0.82;;;23.10;99.90;;;;;;5028389;28;20238;-85
2023/07/27 11:09:43;;;;;;;0.60;0.60;;;23.20;99.90;;;;;;5015967;28;20057;-83
2023/07/27 11:12:10;;;;;;;0.87;0.80;;;23.30;99.90;;;;;;5033008;28;20044;-85
2023/07/27 11:14:37;;;;;;;0.63;0.63;;;23.50;99.90;;;;;;5028443;28;20100;-84
2023/07/27 11:17:04;;;;;;;0.63;0.60;;;23.60;99.90;;;;;;5026864;28;20059;-83
2023/07/27 11:19:31;;;;;;;0.75;0.50;;;23.50;99.90;;;;;;5029282;28;20060;-84
2023/07/27 11:21:58;;;;;;;0.50;0.50;;;23.60;99.90;;;;;;5032678;28;20072;-85
2023/07/27 11:24:26;;;;;;;0.40;0.40;;;23.60;99.90;;;;;;5026832;28;20500;-85
2023/07/27 11:26:53;;;;;;;1.05;0.80;;;23.80;99.90;;;;;;5042570;28;20045;-83
2023/07/27 11:29:20;;;;;;;0.60;0.50;;;24.00;99.90;;;;;;5043780;28;20064;-85
2023/07/27 11:31:58;;;;;;;2.00;0.68;;;24.00;99.90;;;;;;5069589;28;20147;-87
2023/07/27 11:34:25;;;;;;;0.70;0.70;;;23.90;99.90;;;;;;5044765;28;20049;-85
2023/07/27 11:36:54;;;;;;;1.05;0.75;;;24.10;99.90;;;;;;5034648;28;20049;-85
2023/07/27 11:39:20;;;;;;;0.70;0.60;;;24.40;99.90;;;;;;5035195;28;20095;-84
2023/07/27 11:41:49;;;;;;;0.50;0.50;;;24.40;99.90;;;;;;5050650;28;20056;-85
2023/07/27 11:44:18;;;;;;;0.52;0.50;;;24.20;99.90;;;;;;5056678;28;20060;-83
2023/07/27 11:46:48;;;;;;;0.32;0.32;;;24.20;99.90;;;;;;5058803;28;20056;-82
2023/07/27 11:49:15;;;;;;;0.70;0.50;;;24.00;99.90;;;;;;5052591;28;20164;-83
2023/07/27 11:51:44;;;;;;;0.60;0.60;;;24.00;99.90;;;;;;5031921;28;20099;-83
2023/07/27 11:54:23;;;;;;;0.77;0.60;;;23.90;99.90;;;;;;5031959;28;20092;-84
2023/07/27 11:56:51;;;;;;;0.73;0.55;;;24.00;99.90;;;;;;5048401;28;20079;-83
2023/07/27 11:59:19;;;;;;;0.47;0.47;;;24.30;99.90;;;;;;5048916;28;20088;-83
2023/07/27 12:01:48;;;;;;;0.57;0.50;;;24.80;99.90;;;;;;5047520;28;20558;-82
2023/07/27 12:04:15;;;;;;;1.08;0.60;;;25.10;99.90;;;;;;5045211;28;20800;-83
2023/07/27 12:06:43;;;;;;;1.65;0.80;;;25.30;99.90;;;;;;5046496;28;20144;-83
2023/07/27 12:09:11;;;;;;;0.90;0.50;;;25.60;98.60;;;;;;5064755;28;20063;-83
2023/07/27 12:11:38;;;;;;;0.65;0.65;;;25.70;94.60;;;;;;5047957;28;20055;-83
2023/07/27 12:14:08;;;;;;;0.60;0.45;;;25.80;90.40;;;;;;5032569;28;20435;-83
2023/07/27 12:16:42;;;;;;;0.60;0.60;;;25.80;91.30;;;;;;5015344;28;20045;-84
2023/07/27 12:19:12;;;;;;;1.10;0.60;;;25.60;83.50;;;;;;5017480;28;20698;-84
2023/07/27 12:21:49;;;;;;;0.80;0.50;;;25.40;84.50;;;;;;5067318;28;20674;-84
2023/07/27 12:24:21;;;;;;;0.77;0.60;;;25.50;88.40;;;;;;5028724;28;20144;-84
2023/07/27 12:26:50;;;;;;;1.10;0.60;;;25.60;81.00;;;;;;5028817;28;20099;-83
2023/07/27 12:29:21;;;;;;;0.93;0.63;;;25.30;83.20;;;;;;5045460;28;20465;-83
2023/07/27 12:31:51;;;;;;;0.90;0.60;;;25.00;79.90;;;;;;5050712;28;20420;-82
2023/07/27 12:34:21;;;;;;;0.80;0.60;;;24.80;83.20;;;;;;5066083;28;20466;-83
2023/07/27 12:36:51;;;;;;;1.13;0.90;;;24.80;84.30;;;;;;5065485;28;20101;-84
2023/07/27 12:39:21;;;;;;;1.33;0.75;;;24.80;81.70;;;;;;5033145;28;20045;-82
2023/07/27 12:41:48;;;;;;;0.98;0.65;;;24.80;84.60;;;;;;5027811;28;20067;-85
2023/07/27 12:44:17;;;;;;;0.80;0.77;;;24.60;75.50;;;;;;5023116;28;20080;-84
2023/07/27 12:46:44;;;;;;;1.30;0.98;;;24.40;93.00;;;;;;5055331;28;20128;-85
2023/07/27 12:49:11;;;;;;;1.05;0.60;;;24.20;99.90;;;;;;5040362;28;20064;-86
2023/07/27 12:51:38;;;;;;;2.30;0.80;;;24.00;99.90;;;;;;5022854;28;20130;-84
2023/07/27 12:54:06;;;;;;;1.27;1.00;;;23.70;99.90;;;;;;5043138;28;20102;-83
2023/07/27 12:56:33;;;;;;;0.80;0.73;;;23.50;99.90;;;;;;5022680;28;20561;-83